sensor_id;sensor_type;location;lat;lon;timestamp;pressure;altitude;pressure_sealevel;temperature;humidity
71970;BME280;59838;52.152;5.436;2023-07-09T00:00:54;101792.44;;;20.95;94.22
71970;BME280;59838;52.152;5.436;2023-07-09T00:03:20;101794.13;;;20.78;94.21
71970;BME280;59838;52.152;5.436;2023-07-09T00:05:48;101789.06;;;20.64;94.70
71970;BME280;59838;52.152;5.436;2023-07-09T00:08:25;101786.50;;;20.58;95.58
71970;BME280;59838;52.152;5.436;2023-07-09T00:10:55;101785.81;;;20.62;95.37
71970;BME280;59838;52.152;5.436;2023-07-09T00:13:23;101794.69;;;20.68;94.92
71970;BME280;59838;52.152;5.436;2023-07-09T00:15:50;101790.81;;;20.71;94.62
71970;BME280;59838;52.152;5.436;2023-07-09T00:18:17;101799.06;;;20.74;94.25
71970;BME280;59838;52.152;5.436;2023-07-09T00:20:44;101801.25;;;20.77;94.52
71970;BME280;59838;52.152;5.436;2023-07-09T00:23:10;101802.44;;;20.81;94.79
71970;BME280;59838;52.152;5.436;2023-07-09T00:25:40;101811.72;;;20.84;94.31
71970;BME280;59838;52.152;5.436;2023-07-09T00:28:14;101813.78;;;20.82;95.37
71970;BME280;59838;52.152;5.436;2023-07-09T00:30:41;101810.34;;;20.81;95.52
71970;BME280;59838;52.152;5.436;2023-07-09T00:33:11;101807.94;;;20.80;95.25
71970;BME280;59838;52.152;5.436;2023-07-09T00:35:42;101807.13;;;20.79;95.32
71970;BME280;59838;52.152;5.436;2023-07-09T00:38:13;101812.41;;;20.79;95.08
71970;BME280;59838;52.152;5.436;2023-07-09T00:41:04;101812.03;;;20.76;93.94
71970;BME280;59838;52.152;5.436;2023-07-09T00:43:35;101817.22;;;20.71;94.05
71970;BME280;59838;52.152;5.436;2023-07-09T00:48:59;101811.22;;;20.63;94.63
71970;BME280;59838;52.152;5.436;2023-07-09T00:51:28;101812.66;;;20.59;94.38
71970;BME280;59838;52.152;5.436;2023-07-09T00:53:58;101816.34;;;20.58;95.04
71970;BME280;59838;52.152;5.436;2023-07-09T00:56:27;101828.50;;;20.59;95.63
71970;BME280;59838;52.152;5.436;2023-07-09T00:58:57;101823.69;;;20.56;96.26
71970;BME280;59838;52.152;5.436;2023-07-09T01:01:27;101832.84;;;20.54;96.43
71970;BME280;59838;52.152;5.436;2023-07-09T01:03:56;101828.84;;;20.51;97.37
71970;BME280;59838;52.152;5.436;2023-07-09T01:06:39;101831.91;;;20.48;96.35
71970;BME280;59838;52.152;5.436;2023-07-09T01:09:07;101829.94;;;20.43;96.68
71970;BME280;59838;52.152;5.436;2023-07-09T01:11:34;101828.81;;;20.39;97.18
71970;BME280;59838;52.152;5.436;2023-07-09T01:14:03;101827.06;;;20.33;97.51
71970;BME280;59838;52.152;5.436;2023-07-09T01:16:32;101823.38;;;20.34;97.67
71970;BME280;59838;52.152;5.436;2023-07-09T01:19:00;101816.84;;;20.37;97.74
71970;BME280;59838;52.152;5.436;2023-07-09T01:21:27;101818.47;;;20.38;97.25
71970;BME280;59838;52.152;5.436;2023-07-09T01:23:53;101820.28;;;20.37;97.01
71970;BME280;59838;52.152;5.436;2023-07-09T01:26:23;101815.00;;;20.37;96.93
71970;BME280;59838;52.152;5.436;2023-07-09T01:28:54;101817.88;;;20.36;97.18
71970;BME280;59838;52.152;5.436;2023-07-09T01:31:21;101817.88;;;20.36;97.29
71970;BME280;59838;52.152;5.436;2023-07-09T01:33:48;101821.34;;;20.36;97.44
71970;BME280;59838;52.152;5.436;2023-07-09T01:36:20;101817.06;;;20.35;97.29
71970;BME280;59838;52.152;5.436;2023-07-09T01:38:51;101816.06;;;20.36;97.28
71970;BME280;59838;52.152;5.436;2023-07-09T01:41:19;101818.69;;;20.36;97.33
71970;BME280;59838;52.152;5.436;2023-07-09T01:43:46;101816.50;;;20.33;97.39
71970;BME280;59838;52.152;5.436;2023-07-09T01:46:13;101820.38;;;20.31;97.42
71970;BME280;59838;52.152;5.436;2023-07-09T01:48:40;101820.59;;;20.29;97.73
71970;BME280;59838;52.152;5.436;2023-07-09T01:51:09;101827.16;;;20.26;97.66
71970;BME280;59838;52.152;5.436;2023-07-09T01:53:37;101828.38;;;20.24;97.85
71970;BME280;59838;52.152;5.436;2023-07-09T01:56:05;101829.63;;;20.21;98.17
71970;BME280;59838;52.152;5.436;2023-07-09T01:58:34;101823.41;;;20.16;97.50
71970;BME280;59838;52.152;5.436;2023-07-09T02:01:00;101829.94;;;20.13;98.30
71970;BME280;59838;52.152;5.436;2023-07-09T02:03:27;101834.63;;;20.11;98.39
71970;BME280;59838;52.152;5.436;2023-07-09T02:05:54;101833.47;;;20.07;98.42
71970;BME280;59838;52.152;5.436;2023-07-09T02:08:21;101833.91;;;20.04;97.92
71970;BME280;59838;52.152;5.436;2023-07-09T02:10:48;101843.63;;;20.03;97.27
71970;BME280;59838;52.152;5.436;2023-07-09T02:13:15;101827.25;;;20.01;97.76
71970;BME280;59838;52.152;5.436;2023-07-09T02:15:42;101823.59;;;20.02;97.97
71970;BME280;59838;52.152;5.436;2023-07-09T02:18:10;101825.63;;;20.00;97.06
71970;BME280;59838;52.152;5.436;2023-07-09T02:20:37;101836.63;;;19.97;98.15
71970;BME280;59838;52.152;5.436;2023-07-09T02:23:03;101830.31;;;19.98;98.38
71970;BME280;59838;52.152;5.436;2023-07-09T02:25:30;101827.69;;;19.98;98.77
71970;BME280;59838;52.152;5.436;2023-07-09T02:27:56;101825.25;;;19.97;99.75
71970;BME280;59838;52.152;5.436;2023-07-09T02:30:23;101831.59;;;19.96;99.74
71970;BME280;59838;52.152;5.436;2023-07-09T02:32:49;101823.06;;;19.94;99.15
71970;BME280;59838;52.152;5.436;2023-07-09T02:35:16;101827.75;;;19.91;99.87
71970;BME280;59838;52.152;5.436;2023-07-09T02:37:43;101827.75;;;19.91;99.88
71970;BME280;59838;52.152;5.436;2023-07-09T02:40:11;101829.81;;;19.89;100.00
71970;BME280;59838;52.152;5.436;2023-07-09T02:42:38;101825.56;;;19.88;99.99
71970;BME280;59838;52.152;5.436;2023-07-09T02:45:04;101826.59;;;19.87;100.00
71970;BME280;59838;52.152;5.436;2023-07-09T02:47:31;101824.97;;;19.86;100.00
71970;BME280;59838;52.152;5.436;2023-07-09T02:49:58;101830.47;;;19.85;100.00
71970;BME280;59838;52.152;5.436;2023-07-09T02:52:24;101825.41;;;19.83;100.00
71970;BME280;59838;52.152;5.436;2023-07-09T02:54:51;101825.09;;;19.73;99.02
71970;BME280;59838;52.152;5.436;2023-07-09T02:57:17;101829.19;;;19.69;99.39
71970;BME280;59838;52.152;5.436;2023-07-09T02:59:44;101822.75;;;19.65;99.06
71970;BME280;59838;52.152;5.436;2023-07-09T03:02:11;101819.50;;;19.63;99.05
71970;BME280;59838;52.152;5.436;2023-07-09T03:04:37;101830.06;;;19.63;99.75
71970;BME280;59838;52.152;5.436;2023-07-09T03:07:04;101830.06;;;19.63;99.23
71970;BME280;59838;52.152;5.436;2023-07-09T03:09:31;101831.53;;;19.59;99.59
71970;BME280;59838;52.152;5.436;2023-07-09T03:11:57;101824.66;;;19.58;100.00
71970;BME280;59838;52.152;5.436;2023-07-09T03:14:24;101833.97;;;19.60;100.00
71970;BME280;59838;52.152;5.436;2023-07-09T03:16:51;101826.25;;;19.59;100.00
71970;BME280;59838;52.152;5.436;2023-07-09T03:19:17;101832.34;;;19.59;100.00
71970;BME280;59838;52.152;5.436;2023-07-09T03:21:44;101833.34;;;19.58;100.00
71970;BME280;59838;52.152;5.436;2023-07-09T03:24:10;101835.41;;;19.56;100.00
71970;BME280;59838;52.152;5.436;2023-07-09T03:26:37;101827.72;;;19.54;100.00
71970;BME280;59838;52.152;5.436;2023-07-09T03:29:03;101826.91;;;19.54;100.00
71970;BME280;59838;52.152;5.436;2023-07-09T03:31:30;101830.56;;;19.53;100.00
71970;BME280;59838;52.152;5.436;2023-07-09T03:33:56;101842.94;;;19.52;100.00
71970;BME280;59838;52.152;5.436;2023-07-09T03:36:23;101845.56;;;19.52;100.00
71970;BME280;59838;52.152;5.436;2023-07-09T03:38:49;101848.00;;;19.54;100.00
71970;BME280;59838;52.152;5.436;2023-07-09T03:41:16;101844.56;;;19.53;100.00
71970;BME280;59838;52.152;5.436;2023-07-09T03:43:43;101840.88;;;19.54;100.00
71970;BME280;59838;52.152;5.436;2023-07-09T03:46:09;101837.81;;;19.58;99.83
71970;BME280;59838;52.152;5.436;2023-07-09T03:48:36;101832.97;;;19.54;99.92
71970;BME280;59838;52.152;5.436;2023-07-09T03:51:03;101843.09;;;19.58;99.50
71970;BME280;59838;52.152;5.436;2023-07-09T03:53:30;101838.19;;;19.61;99.57
71970;BME280;59838;52.152;5.436;2023-07-09T03:55:56;101841.88;;;19.60;99.48
71970;BME280;59838;52.152;5.436;2023-07-09T03:58:24;101840.16;;;19.66;99.84
71970;BME280;59838;52.152;5.436;2023-07-09T04:00:52;101844.75;;;19.77;100.00
71970;BME280;59838;52.152;5.436;2023-07-09T04:03:20;101842.66;;;19.86;100.00
71970;BME280;59838;52.152;5.436;2023-07-09T04:05:48;101845.63;;;19.89;100.00
71970;BME280;59838;52.152;5.436;2023-07-09T04:08:15;101847.22;;;19.90;100.00
71970;BME280;59838;52.152;5.436;2023-07-09T04:10:41;101848.41;;;19.95;100.00
71970;BME280;59838;52.152;5.436;2023-07-09T04:13:08;101852.22;;;19.99;100.00
71970;BME280;59838;52.152;5.436;2023-07-09T04:15:34;101845.47;;;20.03;100.00
71970;BME280;59838;52.152;5.436;2023-07-09T04:18:01;101850.91;;;20.08;100.00
71970;BME280;59838;52.152;5.436;2023-07-09T04:20:28;101845.31;;;20.16;99.27
71970;BME280;59838;52.152;5.436;2023-07-09T04:22:54;101848.38;;;20.32;98.06
71970;BME280;59838;52.152;5.436;2023-07-09T04:25:20;101841.59;;;20.54;96.90
71970;BME280;59838;52.152;5.436;2023-07-09T04:27:48;101851.63;;;20.64;96.58
71970;BME280;59838;52.152;5.436;2023-07-09T04:30:16;101854.63;;;20.68;96.19
71970;BME280;59838;52.152;5.436;2023-07-09T04:32:43;101857.38;;;20.73;96.19
71970;BME280;59838;52.152;5.436;2023-07-09T04:35:12;101851.53;;;20.71;95.80
71970;BME280;59838;52.152;5.436;2023-07-09T04:37:39;101845.94;;;20.79;95.27
71970;BME280;59838;52.152;5.436;2023-07-09T04:40:07;101848.84;;;21.01;94.69
71970;BME280;59838;52.152;5.436;2023-07-09T04:42:37;101845.88;;;21.09;94.51
71970;BME280;59838;52.152;5.436;2023-07-09T04:45:09;101842.19;;;21.10;94.21
71970;BME280;59838;52.152;5.436;2023-07-09T04:47:36;101847.69;;;21.09;94.12
71970;BME280;59838;52.152;5.436;2023-07-09T04:50:04;101846.44;;;21.11;94.13
71970;BME280;59838;52.152;5.436;2023-07-09T04:52:31;101849.69;;;21.25;94.22
71970;BME280;59838;52.152;5.436;2023-07-09T04:54:58;101851.44;;;21.55;93.33
71970;BME280;59838;52.152;5.436;2023-07-09T04:57:26;101851.41;;;21.79;92.17
71970;BME280;59838;52.152;5.436;2023-07-09T04:59:53;101840.09;;;21.95;91.38
71970;BME280;59838;52.152;5.436;2023-07-09T05:02:20;101842.97;;;22.34;89.85
71970;BME280;59838;52.152;5.436;2023-07-09T05:04:46;101843.81;;;22.52;88.72
71970;BME280;59838;52.152;5.436;2023-07-09T05:07:12;101837.44;;;22.36;89.38
71970;BME280;59838;52.152;5.436;2023-07-09T05:09:39;101827.34;;;22.21;90.88
71970;BME280;59838;52.152;5.436;2023-07-09T05:12:06;101830.63;;;22.40;92.32
71970;BME280;59838;52.152;5.436;2023-07-09T05:14:33;101831.78;;;22.61;91.07
71970;BME280;59838;52.152;5.436;2023-07-09T05:16:59;101832.91;;;22.82;89.55
71970;BME280;59838;52.152;5.436;2023-07-09T05:19:26;101837.16;;;23.12;88.14
71970;BME280;59838;52.152;5.436;2023-07-09T05:21:52;101834.31;;;23.18;87.25
71970;BME280;59838;52.152;5.436;2023-07-09T05:24:19;101832.63;;;23.29;87.13
71970;BME280;59838;52.152;5.436;2023-07-09T05:26:45;101833.84;;;23.22;87.17
71970;BME280;59838;52.152;5.436;2023-07-09T05:29:11;101831.81;;;23.29;87.26
71970;BME280;59838;52.152;5.436;2023-07-09T05:31:38;101830.81;;;23.52;86.70
71970;BME280;59838;52.152;5.436;2023-07-09T05:34:05;101831.38;;;23.98;85.10
71970;BME280;59838;52.152;5.436;2023-07-09T05:36:31;101828.63;;;24.64;82.27
71970;BME280;59838;52.152;5.436;2023-07-09T05:38:58;101830.25;;;25.46;77.40
71970;BME280;59838;52.152;5.436;2023-07-09T05:41:24;101826.53;;;26.20;74.89
71970;BME280;59838;52.152;5.436;2023-07-09T05:43:52;101830.28;;;26.60;72.91
71970;BME280;59838;52.152;5.436;2023-07-09T05:46:19;101827.06;;;27.05;72.21
71970;BME280;59838;52.152;5.436;2023-07-09T05:48:46;101825.53;;;27.74;68.64
71970;BME280;59838;52.152;5.436;2023-07-09T05:51:13;101826.63;;;28.62;63.01
71970;BME280;59838;52.152;5.436;2023-07-09T05:53:39;101840.50;;;29.23;59.60
71970;BME280;59838;52.152;5.436;2023-07-09T05:56:07;101840.78;;;29.46;57.72
71970;BME280;59838;52.152;5.436;2023-07-09T05:58:33;101845.72;;;29.33;57.87
71970;BME280;59838;52.152;5.436;2023-07-09T06:01:00;101844.50;;;29.45;57.54
71970;BME280;59838;52.152;5.436;2023-07-09T06:03:28;101847.53;;;29.62;57.75
71970;BME280;59838;52.152;5.436;2023-07-09T06:05:57;101848.94;;;29.79;58.06
71970;BME280;59838;52.152;5.436;2023-07-09T06:08:26;101841.72;;;29.79;58.17
71970;BME280;59838;52.152;5.436;2023-07-09T06:11:00;101851.63;;;29.79;59.10
71970;BME280;59838;52.152;5.436;2023-07-09T06:13:28;101859.97;;;29.53;60.57
71970;BME280;59838;52.152;5.436;2023-07-09T06:15:57;101857.13;;;29.44;59.04
71970;BME280;59838;52.152;5.436;2023-07-09T06:18:25;101855.25;;;29.15;60.04
71970;BME280;59838;52.152;5.436;2023-07-09T06:21:00;101860.44;;;29.07;59.61
71970;BME280;59838;52.152;5.436;2023-07-09T06:23:28;101860.00;;;28.94;59.65
71970;BME280;59838;52.152;5.436;2023-07-09T06:25:55;101854.09;;;28.97;60.01
71970;BME280;59838;52.152;5.436;2023-07-09T06:28:24;101854.81;;;29.08;60.89
71970;BME280;59838;52.152;5.436;2023-07-09T06:30:50;101863.44;;;29.29;59.41
71970;BME280;59838;52.152;5.436;2023-07-09T06:33:18;101864.06;;;29.45;59.63
71970;BME280;59838;52.152;5.436;2023-07-09T06:35:47;101855.19;;;29.93;58.02
71970;BME280;59838;52.152;5.436;2023-07-09T06:38:14;101859.41;;;30.37;57.51
71970;BME280;59838;52.152;5.436;2023-07-09T06:40:41;101868.81;;;30.68;56.80
71970;BME280;59838;52.152;5.436;2023-07-09T06:43:08;101856.69;;;31.03;56.72
71970;BME280;59838;52.152;5.436;2023-07-09T06:45:34;101871.22;;;31.02;55.72
71970;BME280;59838;52.152;5.436;2023-07-09T06:48:01;101866.25;;;31.09;56.28
71970;BME280;59838;52.152;5.436;2023-07-09T06:50:28;101861.88;;;31.41;55.93
71970;BME280;59838;52.152;5.436;2023-07-09T06:52:55;101859.66;;;31.71;55.43
71970;BME280;59838;52.152;5.436;2023-07-09T06:55:21;101865.16;;;31.52;54.98
71970;BME280;59838;52.152;5.436;2023-07-09T06:57:48;101861.44;;;31.89;53.60
71970;BME280;59838;52.152;5.436;2023-07-09T07:00:14;101863.66;;;32.10;53.82
71970;BME280;59838;52.152;5.436;2023-07-09T07:02:41;101851.75;;;32.48;52.32
71970;BME280;59838;52.152;5.436;2023-07-09T07:05:08;101851.94;;;32.74;51.84
71970;BME280;59838;52.152;5.436;2023-07-09T07:07:35;101863.34;;;32.79;52.76
71970;BME280;59838;52.152;5.436;2023-07-09T07:10:01;101859.88;;;32.79;51.89
71970;BME280;59838;52.152;5.436;2023-07-09T07:12:41;101863.25;;;32.39;52.80
71970;BME280;59838;52.152;5.436;2023-07-09T07:15:08;101859.91;;;32.11;54.56
71970;BME280;59838;52.152;5.436;2023-07-09T07:17:35;101857.44;;;32.23;54.03
71970;BME280;59838;52.152;5.436;2023-07-09T07:20:01;101861.72;;;32.47;53.53
71970;BME280;59838;52.152;5.436;2023-07-09T07:22:28;101861.97;;;32.82;51.05
71970;BME280;59838;52.152;5.436;2023-07-09T07:24:54;101859.38;;;32.77;52.24
71970;BME280;59838;52.152;5.436;2023-07-09T07:27:21;101854.69;;;32.91;51.80
71970;BME280;59838;52.152;5.436;2023-07-09T07:29:47;101849.38;;;33.00;52.20
71970;BME280;59838;52.152;5.436;2023-07-09T07:32:14;101847.50;;;32.47;53.18
71970;BME280;59838;52.152;5.436;2023-07-09T07:34:40;101855.69;;;32.41;51.80
71970;BME280;59838;52.152;5.436;2023-07-09T07:37:07;101863.69;;;32.33;52.14
71970;BME280;59838;52.152;5.436;2023-07-09T07:39:33;101857.47;;;33.09;52.69
71970;BME280;59838;52.152;5.436;2023-07-09T07:42:00;101861.88;;;33.45;50.83
71970;BME280;59838;52.152;5.436;2023-07-09T07:44:26;101863.38;;;33.86;48.94
71970;BME280;59838;52.152;5.436;2023-07-09T07:46:53;101861.94;;;33.80;49.18
71970;BME280;59838;52.152;5.436;2023-07-09T07:49:19;101864.31;;;34.07;47.48
71970;BME280;59838;52.152;5.436;2023-07-09T07:51:46;101866.53;;;34.14;47.01
71970;BME280;59838;52.152;5.436;2023-07-09T07:54:13;101860.06;;;34.24;47.14
71970;BME280;59838;52.152;5.436;2023-07-09T07:56:41;101857.97;;;34.21;48.71
71970;BME280;59838;52.152;5.436;2023-07-09T07:59:07;101856.66;;;33.57;52.18
71970;BME280;59838;52.152;5.436;2023-07-09T08:01:34;101857.91;;;33.02;52.52
71970;BME280;59838;52.152;5.436;2023-07-09T08:04:02;101860.97;;;32.78;51.37
71970;BME280;59838;52.152;5.436;2023-07-09T08:06:29;101858.56;;;32.22;54.71
71970;BME280;59838;52.152;5.436;2023-07-09T08:08:58;101860.97;;;31.74;53.87
71970;BME280;59838;52.152;5.436;2023-07-09T08:11:25;101858.41;;;31.55;55.40
71970;BME280;59838;52.152;5.436;2023-07-09T08:13:54;101857.50;;;31.45;55.25
71970;BME280;59838;52.152;5.436;2023-07-09T08:16:20;101861.28;;;31.44;55.44
71970;BME280;59838;52.152;5.436;2023-07-09T08:18:47;101874.03;;;31.52;55.20
71970;BME280;59838;52.152;5.436;2023-07-09T08:21:13;101863.66;;;31.46;54.98
71970;BME280;59838;52.152;5.436;2023-07-09T08:23:40;101847.38;;;31.56;54.43
71970;BME280;59838;52.152;5.436;2023-07-09T08:26:06;101848.75;;;31.26;56.29
71970;BME280;59838;52.152;5.436;2023-07-09T08:28:34;101853.72;;;31.19;55.20
71970;BME280;59838;52.152;5.436;2023-07-09T08:31:01;101855.63;;;31.46;55.55
71970;BME280;59838;52.152;5.436;2023-07-09T08:33:29;101856.63;;;31.64;54.66
71970;BME280;59838;52.152;5.436;2023-07-09T08:35:56;101850.53;;;31.58;55.53
71970;BME280;59838;52.152;5.436;2023-07-09T08:38:23;101865.44;;;31.50;55.44
71970;BME280;59838;52.152;5.436;2023-07-09T08:40:57;101857.63;;;31.90;55.09
71970;BME280;59838;52.152;5.436;2023-07-09T08:43:35;101859.06;;;31.88;54.05
71970;BME280;59838;52.152;5.436;2023-07-09T08:46:29;101851.41;;;32.18;54.22
71970;BME280;59838;52.152;5.436;2023-07-09T08:49:01;101857.63;;;31.90;50.66
71970;BME280;59838;52.152;5.436;2023-07-09T08:51:39;101849.66;;;31.99;52.81
71970;BME280;59838;52.152;5.436;2023-07-09T08:54:14;101847.84;;;32.08;53.76
71970;BME280;59838;52.152;5.436;2023-07-09T08:56:43;101848.72;;;32.18;53.07
71970;BME280;59838;52.152;5.436;2023-07-09T08:59:14;101841.38;;;31.96;53.72
71970;BME280;59838;52.152;5.436;2023-07-09T09:01:54;101841.94;;;31.70;54.70
71970;BME280;59838;52.152;5.436;2023-07-09T09:04:27;101847.13;;;31.80;52.69
71970;BME280;59838;52.152;5.436;2023-07-09T09:08:01;101841.78;;;32.03;52.03
71970;BME280;59838;52.152;5.436;2023-07-09T09:10:14;101846.06;;;32.26;52.64
71970;BME280;59838;52.152;5.436;2023-07-09T09:12:52;101846.22;;;32.21;50.27
71970;BME280;59838;52.152;5.436;2023-07-09T09:15:23;101839.91;;;32.26;50.90
71970;BME280;59838;52.152;5.436;2023-07-09T09:17:52;101848.84;;;32.13;52.86
71970;BME280;59838;52.152;5.436;2023-07-09T09:20:20;101843.94;;;32.15;52.47
71970;BME280;59838;52.152;5.436;2023-07-09T09:22:57;101845.72;;;32.05;49.32
71970;BME280;59838;52.152;5.436;2023-07-09T09:25:33;101850.75;;;32.12;52.54
71970;BME280;59838;52.152;5.436;2023-07-09T09:28:02;101840.59;;;32.32;48.73
71970;BME280;59838;52.152;5.436;2023-07-09T09:30:30;101843.81;;;32.42;51.29
71970;BME280;59838;52.152;5.436;2023-07-09T09:33:16;101837.78;;;32.37;53.66
71970;BME280;59838;52.152;5.436;2023-07-09T09:35:44;101839.88;;;32.17;50.83
71970;BME280;59838;52.152;5.436;2023-07-09T09:38:13;101841.44;;;32.18;51.25
71970;BME280;59838;52.152;5.436;2023-07-09T09:40:39;101839.25;;;32.20;50.53
71970;BME280;59838;52.152;5.436;2023-07-09T09:43:14;101835.28;;;32.18;50.01
71970;BME280;59838;52.152;5.436;2023-07-09T09:45:41;101832.28;;;32.19;51.74
71970;BME280;59838;52.152;5.436;2023-07-09T09:50:41;101834.41;;;32.31;49.52
71970;BME280;59838;52.152;5.436;2023-07-09T09:53:08;101824.47;;;32.32;55.87
71970;BME280;59838;52.152;5.436;2023-07-09T09:55:38;101824.94;;;32.34;57.97
71970;BME280;59838;52.152;5.436;2023-07-09T09:58:13;101823.13;;;32.20;58.38
71970;BME280;59838;52.152;5.436;2023-07-09T10:00:40;101821.50;;;32.42;57.68
71970;BME280;59838;52.152;5.436;2023-07-09T10:03:07;101812.94;;;31.95;57.83
71970;BME280;59838;52.152;5.436;2023-07-09T10:05:53;101816.72;;;32.30;60.40
71970;BME280;59838;52.152;5.436;2023-07-09T10:11:15;101802.06;;;31.77;60.46
71970;BME280;59838;52.152;5.436;2023-07-09T10:13:44;101805.50;;;31.92;61.38
71970;BME280;59838;52.152;5.436;2023-07-09T10:16:32;101802.38;;;31.98;59.61
71970;BME280;59838;52.152;5.436;2023-07-09T10:19:14;101806.44;;;32.10;57.44
71970;BME280;59838;52.152;5.436;2023-07-09T10:24:57;101793.81;;;31.74;60.04
71970;BME280;59838;52.152;5.436;2023-07-09T10:30:41;101793.88;;;31.82;60.98
71970;BME280;59838;52.152;5.436;2023-07-09T10:33:12;101804.13;;;31.80;59.62
71970;BME280;59838;52.152;5.436;2023-07-09T10:36:11;101805.53;;;32.00;58.67
71970;BME280;59838;52.152;5.436;2023-07-09T10:38:54;101809.91;;;32.10;58.55
71970;BME280;59838;52.152;5.436;2023-07-09T10:41:23;101813.72;;;31.95;58.20
71970;BME280;59838;52.152;5.436;2023-07-09T10:44:05;101803.41;;;31.88;59.75
71970;BME280;59838;52.152;5.436;2023-07-09T10:46:37;101810.13;;;32.00;57.83
71970;BME280;59838;52.152;5.436;2023-07-09T10:49:10;101808.69;;;32.16;60.49
71970;BME280;59838;52.152;5.436;2023-07-09T10:51:40;101812.25;;;32.25;60.90
71970;BME280;59838;52.152;5.436;2023-07-09T10:54:29;101814.28;;;31.83;57.48
71970;BME280;59838;52.152;5.436;2023-07-09T10:57:10;101802.03;;;32.14;61.98
71970;BME280;59838;52.152;5.436;2023-07-09T10:59:40;101802.16;;;32.31;55.99
71970;BME280;59838;52.152;5.436;2023-07-09T11:02:30;101806.75;;;32.31;58.60
71970;BME280;59838;52.152;5.436;2023-07-09T11:05:03;101797.03;;;32.52;56.84
71970;BME280;59838;52.152;5.436;2023-07-09T11:07:34;101812.06;;;32.44;59.26
71970;BME280;59838;52.152;5.436;2023-07-09T11:10:32;101811.47;;;32.56;56.94
71970;BME280;59838;52.152;5.436;2023-07-09T11:15:34;101816.00;;;32.47;56.04
71970;BME280;59838;52.152;5.436;2023-07-09T11:18:05;101809.13;;;32.32;56.79
71970;BME280;59838;52.152;5.436;2023-07-09T11:20:41;101808.19;;;32.37;57.71
71970;BME280;59838;52.152;5.436;2023-07-09T11:23:50;101802.66;;;32.11;57.83
71970;BME280;59838;52.152;5.436;2023-07-09T11:26:30;101790.16;;;31.92;59.06
71970;BME280;59838;52.152;5.436;2023-07-09T11:31:38;101782.78;;;31.98;59.74
71970;BME280;59838;52.152;5.436;2023-07-09T11:39:21;101776.53;;;32.34;56.38
71970;BME280;59838;52.152;5.436;2023-07-09T11:41:48;101787.06;;;32.21;58.70
71970;BME280;59838;52.152;5.436;2023-07-09T11:44:19;101791.63;;;32.43;59.25
71970;BME280;59838;52.152;5.436;2023-07-09T11:47:03;101791.97;;;32.19;60.27
71970;BME280;59838;52.152;5.436;2023-07-09T11:49:50;101791.97;;;32.19;57.31
71970;BME280;59838;52.152;5.436;2023-07-09T11:52:25;101791.59;;;32.12;59.39
71970;BME280;59838;52.152;5.436;2023-07-09T11:54:54;101793.44;;;32.25;57.67
71970;BME280;59838;52.152;5.436;2023-07-09T11:57:20;101789.09;;;32.47;56.94
71970;BME280;59838;52.152;5.436;2023-07-09T11:59:47;101794.28;;;32.66;55.45
71970;BME280;59838;52.152;5.436;2023-07-09T12:02:18;101800.25;;;32.54;55.80
71970;BME280;59838;52.152;5.436;2023-07-09T12:04:50;101812.38;;;32.74;55.22
71970;BME280;59838;52.152;5.436;2023-07-09T12:07:17;101816.63;;;33.15;54.15
71970;BME280;59838;52.152;5.436;2023-07-09T12:09:48;101816.84;;;33.37;54.12
71970;BME280;59838;52.152;5.436;2023-07-09T12:12:25;101812.09;;;33.33;51.48
71970;BME280;59838;52.152;5.436;2023-07-09T12:14:52;101814.47;;;33.35;52.47
71970;BME280;59838;52.152;5.436;2023-07-09T12:17:23;101832.13;;;33.10;53.90
71970;BME280;59838;52.152;5.436;2023-07-09T12:19:51;101824.97;;;32.96;51.50
71970;BME280;59838;52.152;5.436;2023-07-09T12:22:22;101833.22;;;33.00;51.67
71970;BME280;59838;52.152;5.436;2023-07-09T12:24:50;101837.09;;;33.25;51.78
71970;BME280;59838;52.152;5.436;2023-07-09T12:27:27;101833.31;;;33.35;50.06
71970;BME280;59838;52.152;5.436;2023-07-09T12:29:57;101829.06;;;33.34;49.52
71970;BME280;59838;52.152;5.436;2023-07-09T12:32:23;101831.72;;;33.16;48.51
71970;BME280;59838;52.152;5.436;2023-07-09T12:34:56;101827.84;;;33.00;48.95
71970;BME280;59838;52.152;5.436;2023-07-09T12:37:25;101822.34;;;32.74;51.57
71970;BME280;59838;52.152;5.436;2023-07-09T12:39:54;101815.16;;;32.15;54.26
71970;BME280;59838;52.152;5.436;2023-07-09T12:42:32;101811.22;;;31.99;53.55
71970;BME280;59838;52.152;5.436;2023-07-09T12:45:00;101803.75;;;32.10;53.37
71970;BME280;59838;52.152;5.436;2023-07-09T12:47:27;101818.69;;;32.02;52.05
71970;BME280;59838;52.152;5.436;2023-07-09T12:50:01;101831.13;;;31.75;52.38
71970;BME280;59838;52.152;5.436;2023-07-09T12:52:29;101832.69;;;31.76;52.39
71970;BME280;59838;52.152;5.436;2023-07-09T12:55:02;101826.38;;;31.95;52.73
71970;BME280;59838;52.152;5.436;2023-07-09T12:57:29;101819.16;;;32.04;50.50
71970;BME280;59838;52.152;5.436;2023-07-09T12:59:57;101819.03;;;32.23;48.88
71970;BME280;59838;52.152;5.436;2023-07-09T13:02:26;101820.13;;;32.44;50.89
71970;BME280;59838;52.152;5.436;2023-07-09T13:05:02;101819.00;;;32.77;49.72
71970;BME280;59838;52.152;5.436;2023-07-09T13:07:33;101815.13;;;32.92;49.26
71970;BME280;59838;52.152;5.436;2023-07-09T13:10:23;101824.16;;;32.87;49.90
71970;BME280;59838;52.152;5.436;2023-07-09T13:12:55;101833.41;;;32.72;47.48
71970;BME280;59838;52.152;5.436;2023-07-09T13:15:29;101831.22;;;32.74;48.91
71970;BME280;59838;52.152;5.436;2023-07-09T13:17:58;101824.31;;;32.99;48.63
71970;BME280;59838;52.152;5.436;2023-07-09T13:20:27;101822.47;;;33.09;45.98
71970;BME280;59838;52.152;5.436;2023-07-09T13:22:54;101830.47;;;32.91;45.85
71970;BME280;59838;52.152;5.436;2023-07-09T13:25:21;101849.25;;;32.51;45.80
71970;BME280;59838;52.152;5.436;2023-07-09T13:28:27;101854.22;;;32.13;47.54